RYR22KC EGCC-LFOB
Flight info
| Callsign | RYR22KC |
|---|---|
| Flight time | N/A |
| Altitude | 35000 |
| Route | LISTO P18 TELBA L151 MID Y803 SFD/N0413F230 M605 HARDY/N0390F190 M605 PETAX/N0379F170 J150 VELOL |
| Aircraft | B38M/M-SDE1FGHILORVWXY/HB1 |
Departure
| Time | 2026-05-05 21:38 |
|---|---|
| Airport | Manchester Airport (EGCC) |
Arrival
| Time | N/A |
|---|---|
| Airport | Beauvais-Tillé airport (LFOB) |
| Time | Latitude | Longitude | Altitude | Speed | Heading |
|---|---|---|---|---|---|
| 2026-05-05 20:55 | 53.35976 | -2.26983 | 258 ft | 0 kts | 290° |
| 2026-05-05 21:20 | 53.35972 | -2.26964 | 258 ft | 2 kts | 290° |
| 2026-05-05 21:21 | 53.35966 | -2.26938 | 258 ft | 2 kts | 294° |
| 2026-05-05 21:21 | 53.35958 | -2.26913 | 258 ft | 2 kts | 297° |
| 2026-05-05 21:21 | 53.35950 | -2.26889 | 258 ft | 2 kts | 303° |
| 2026-05-05 21:21 | 53.35940 | -2.26867 | 258 ft | 2 kts | 311° |
| 2026-05-05 21:22 | 53.35930 | -2.26850 | 258 ft | 2 kts | 328° |
| 2026-05-05 21:22 | 53.35923 | -2.26842 | 258 ft | 2 kts | 279° |
| 2026-05-05 21:22 | 53.35932 | -2.26828 | 258 ft | 2 kts | 154° |
| 2026-05-05 21:22 | 53.35946 | -2.26842 | 258 ft | 2 kts | 160° |
| 2026-05-05 21:27 | 53.35944 | -2.26841 | 258 ft | 1 kts | 160° |
| 2026-05-05 21:27 | 53.35926 | -2.26831 | 258 ft | 4 kts | 165° |
| 2026-05-05 21:27 | 53.35897 | -2.26849 | 258 ft | 6 kts | 220° |
| 2026-05-05 21:27 | 53.35866 | -2.26911 | 258 ft | 8 kts | 233° |
| 2026-05-05 21:28 | 53.35827 | -2.27002 | 258 ft | 11 kts | 237° |
| 2026-05-05 21:28 | 53.35782 | -2.27121 | 258 ft | 13 kts | 234° |
| 2026-05-05 21:28 | 53.35719 | -2.27249 | 258 ft | 15 kts | 230° |
| 2026-05-05 21:28 | 53.35646 | -2.27402 | 257 ft | 18 kts | 231° |
| 2026-05-05 21:29 | 53.35591 | -2.27516 | 258 ft | 19 kts | 230° |
| 2026-05-05 21:29 | 53.35496 | -2.27712 | 252 ft | 24 kts | 231° |
| 2026-05-05 21:29 | 53.35443 | -2.27933 | 248 ft | 21 kts | 240° |
| 2026-05-05 21:29 | 53.35327 | -2.28130 | 242 ft | 26 kts | 224° |
| 2026-05-05 21:30 | 53.35149 | -2.28472 | 234 ft | 32 kts | 231° |
| 2026-05-05 21:30 | 53.35081 | -2.28612 | 227 ft | 22 kts | 231° |
| 2026-05-05 21:30 | 53.34997 | -2.28775 | 223 ft | 19 kts | 226° |
| 2026-05-05 21:30 | 53.34935 | -2.28880 | 219 ft | 0 kts | 226° |
| 2026-05-05 21:31 | 53.34926 | -2.28896 | 219 ft | 4 kts | 226° |
| 2026-05-05 21:31 | 53.34901 | -2.28940 | 221 ft | 6 kts | 226° |
| 2026-05-05 21:31 | 53.34863 | -2.29005 | 219 ft | 8 kts | 226° |
| 2026-05-05 21:31 | 53.34855 | -2.29021 | 215 ft | 0 kts | 226° |
| 2026-05-05 21:33 | 53.34849 | -2.29030 | 215 ft | 0 kts | 224° |
| 2026-05-05 21:34 | 53.34842 | -2.29040 | 216 ft | 4 kts | 218° |
| 2026-05-05 21:34 | 53.34807 | -2.29067 | 213 ft | 3 kts | 195° |
| 2026-05-05 21:34 | 53.34806 | -2.29068 | 217 ft | 0 kts | 194° |
| 2026-05-05 21:35 | 53.34803 | -2.29069 | 217 ft | 2 kts | 194° |
| 2026-05-05 21:35 | 53.34771 | -2.29082 | 212 ft | 7 kts | 187° |
| 2026-05-05 21:35 | 53.34721 | -2.29055 | 219 ft | 9 kts | 157° |
| 2026-05-05 21:36 | 53.34668 | -2.28980 | 215 ft | 6 kts | 107° |
| 2026-05-05 21:36 | 53.34675 | -2.28945 | 215 ft | 2 kts | 54° |
| 2026-05-05 21:36 | 53.34678 | -2.28938 | 216 ft | 0 kts | 51° |
| 2026-05-05 21:37 | 53.34679 | -2.28937 | 211 ft | 1 kts | 51° |
| 2026-05-05 21:38 | 53.34727 | -2.28836 | 214 ft | 29 kts | 51° |
| 2026-05-05 21:38 | 53.35009 | -2.28250 | 229 ft | 102 kts | 51° |
| 2026-05-05 21:38 | 53.35588 | -2.27049 | 274 ft | 162 kts | 52° |
| 2026-05-05 21:38 | 53.36329 | -2.25490 | 1068 ft | 170 kts | 52° |
| 2026-05-05 21:39 | 53.37062 | -2.23931 | 2130 ft | 171 kts | 56° |
| 2026-05-05 21:39 | 53.37420 | -2.22011 | 2867 ft | 181 kts | 88° |
| 2026-05-05 21:39 | 53.37069 | -2.19902 | 3403 ft | 201 kts | 119° |
| 2026-05-05 21:40 | 53.34697 | -2.17139 | 4308 ft | 247 kts | 165° |
| 2026-05-05 21:40 | 53.32943 | -2.17079 | 4932 ft | 254 kts | 187° |
| 2026-05-05 21:40 | 53.31141 | -2.17351 | 5354 ft | 268 kts | 185° |
| 2026-05-05 21:40 | 53.29269 | -2.17604 | 5043 ft | 270 kts | 185° |
| 2026-05-05 21:41 | 53.27393 | -2.17874 | 5031 ft | 273 kts | 185° |
| 2026-05-05 21:41 | 53.25450 | -2.18167 | 6029 ft | 268 kts | 186° |
| 2026-05-05 21:41 | 53.23638 | -2.18446 | 6942 ft | 272 kts | 186° |
| 2026-05-05 21:41 | 53.21682 | -2.18751 | 7607 ft | 285 kts | 187° |
| 2026-05-05 21:42 | 53.19729 | -2.19057 | 8447 ft | 287 kts | 187° |
| 2026-05-05 21:42 | 53.17689 | -2.19376 | 9309 ft | 293 kts | 187° |
| 2026-05-05 21:42 | 53.15649 | -2.19697 | 10068 ft | 299 kts | 187° |
| 2026-05-05 21:42 | 53.13565 | -2.20025 | 10779 ft | 307 kts | 187° |
| 2026-05-05 21:43 | 53.11384 | -2.20367 | 11236 ft | 324 kts | 187° |
| 2026-05-05 21:43 | 53.09031 | -2.20736 | 11644 ft | 343 kts | 187° |
| 2026-05-05 21:43 | 53.06617 | -2.21114 | 12137 ft | 356 kts | 187° |
| 2026-05-05 21:43 | 53.04131 | -2.21502 | 12934 ft | 359 kts | 187° |
| 2026-05-05 21:44 | 53.01638 | -2.21891 | 13791 ft | 362 kts | 187° |
| 2026-05-05 21:44 | 52.99130 | -2.22281 | 14525 ft | 365 kts | 187° |
| 2026-05-05 21:44 | 52.96572 | -2.22678 | 15313 ft | 368 kts | 187° |
| 2026-05-05 21:44 | 52.94008 | -2.23076 | 16105 ft | 371 kts | 187° |
| 2026-05-05 21:45 | 52.91453 | -2.23472 | 16880 ft | 375 kts | 187° |
| 2026-05-05 21:45 | 52.88854 | -2.23874 | 17632 ft | 378 kts | 187° |
| 2026-05-05 21:45 | 52.86219 | -2.24314 | 18387 ft | 380 kts | 191° |
| 2026-05-05 21:45 | 52.83647 | -2.25343 | 19002 ft | 382 kts | 196° |
| 2026-05-05 21:46 | 52.81044 | -2.26371 | 19604 ft | 386 kts | 195° |
| 2026-05-05 21:46 | 52.78413 | -2.27373 | 20231 ft | 389 kts | 194° |
| 2026-05-05 21:46 | 52.75760 | -2.28363 | 20851 ft | 393 kts | 194° |
| 2026-05-05 21:46 | 52.73076 | -2.29355 | 21460 ft | 396 kts | 194° |
| 2026-05-05 21:47 | 52.70374 | -2.30344 | 22064 ft | 399 kts | 193° |
| 2026-05-05 21:47 | 52.69442 | -2.30611 | 22259 ft | 402 kts | 188° |